Time;durP1;ratioP1;P1;durP2;ratioP2;P2;SDS_P1;SDS_P2;PMS_P1;PMS_P2;Temp;Humidity;BMP_temperature;BMP_pressure;BME280_temperature;BME280_humidity;BME280_pressure;Samples;Min_cycle;Max_cycle;Signal;HPM_P1;HPM_P2
2022/09/29 00:00:25;;;;;;;1.80;0.77;;;7.60;99.90;;;;;;6204535;23;20450;-89
2022/09/29 00:02:52;;;;;;;1.27;0.73;;;7.60;99.90;;;;;;6229884;23;20010;-89
2022/09/29 00:05:18;;;;;;;1.60;0.70;;;7.60;99.90;;;;;;6229374;23;20017;-89
2022/09/29 00:07:44;;;;;;;2.57;1.17;;;7.60;99.90;;;;;;6229411;22;20101;-88
2022/09/29 00:10:10;;;;;;;2.55;0.95;;;7.60;99.90;;;;;;6204071;23;20033;-89
2022/09/29 00:12:36;;;;;;;1.58;0.80;;;7.60;99.90;;;;;;6228279;23;20024;-88
2022/09/29 00:15:02;;;;;;;1.92;0.88;;;7.60;99.90;;;;;;6228029;23;20096;-89
2022/09/29 00:17:28;;;;;;;2.30;1.05;;;7.60;99.90;;;;;;6229660;23;20047;-89
2022/09/29 00:19:54;;;;;;;1.77;0.83;;;7.60;99.90;;;;;;6228815;22;20017;-88
2022/09/29 00:22:20;;;;;;;2.50;1.00;;;7.60;99.90;;;;;;6203767;22;20048;-89
2022/09/29 00:24:48;;;;;;;1.70;0.97;;;7.50;99.90;;;;;;6229361;22;20082;-89
2022/09/29 00:27:16;;;;;;;1.80;0.90;;;7.60;99.90;;;;;;6189801;23;20014;-88
2022/09/29 00:29:41;;;;;;;1.58;0.82;;;7.50;99.90;;;;;;6233384;23;20026;-89
2022/09/29 00:32:07;;;;;;;1.93;1.00;;;7.50;99.90;;;;;;6228201;22;20014;-89
2022/09/29 00:34:33;;;;;;;2.07;1.13;;;7.50;99.90;;;;;;6229620;22;20025;-89
2022/09/29 00:36:58;;;;;;;1.87;0.93;;;7.60;99.90;;;;;;6229739;22;20017;-89
2022/09/29 00:39:24;;;;;;;1.90;0.80;;;7.60;99.90;;;;;;6203849;23;20328;-88
2022/09/29 00:41:50;;;;;;;1.90;0.93;;;7.50;99.90;;;;;;6204253;23;20075;-89
2022/09/29 00:44:18;;;;;;;1.97;0.93;;;7.50;99.90;;;;;;6229306;22;20726;-88
2022/09/29 00:46:49;;;;;;;2.40;0.90;;;7.40;99.90;;;;;;6229093;23;20018;-89
2022/09/29 00:49:27;;;;;;;1.10;0.70;;;7.40;99.90;;;;;;6229561;23;20025;-89
2022/09/29 00:52:04;;;;;;;1.13;0.70;;;7.40;99.90;;;;;;6229271;23;20017;-88
2022/09/29 00:54:35;;;;;;;0.88;0.60;;;7.40;99.90;;;;;;6229434;23;20342;-87
2022/09/29 00:57:03;;;;;;;1.33;0.77;;;7.30;99.90;;;;;;6229012;23;20088;-88
2022/09/29 00:59:54;;;;;;;1.75;0.90;;;7.30;99.90;;;;;;6229336;23;20049;-88
2022/09/29 01:02:21;;;;;;;1.92;0.90;;;7.30;99.90;;;;;;6229341;23;20052;-88
2022/09/29 01:04:51;;;;;;;1.63;0.82;;;7.30;99.90;;;;;;6228581;23;20020;-87
2022/09/29 01:07:19;;;;;;;2.42;1.02;;;7.30;99.90;;;;;;6251899;22;20311;-88
2022/09/29 01:09:45;;;;;;;1.90;1.10;;;7.30;99.90;;;;;;6226837;22;20029;-87
2022/09/29 01:12:11;;;;;;;1.75;0.90;;;7.30;99.90;;;;;;6176451;23;20025;-88
2022/09/29 01:14:38;;;;;;;2.47;1.10;;;7.30;99.90;;;;;;6228816;22;20074;-87
2022/09/29 01:17:05;;;;;;;2.17;1.10;;;7.30;99.90;;;;;;6228470;23;20029;-88
2022/09/29 01:20:19;;;;;;;2.33;1.13;;;7.30;99.90;;;;;;6228861;23;20462;-87
2022/09/29 01:23:05;;;;;;;3.20;1.50;;;7.30;99.90;;;;;;6203604;23;20022;-87
2022/09/29 01:26:08;;;;;;;2.47;1.33;;;7.30;99.90;;;;;;6227754;23;20018;-88
2022/09/29 01:28:55;;;;;;;2.30;1.20;;;7.30;99.90;;;;;;6227247;23;20047;-89
2022/09/29 01:31:34;;;;;;;3.22;1.20;;;7.30;99.90;;;;;;6228706;23;20095;-87
2022/09/29 01:34:06;;;;;;;3.58;1.70;;;7.20;99.90;;;;;;6228205;23;20067;-88
2022/09/29 01:36:41;;;;;;;3.35;1.75;;;7.20;99.90;;;;;;6228530;23;20052;-88
2022/09/29 01:39:18;;;;;;;2.92;1.40;;;7.20;99.90;;;;;;6229928;23;20070;-88
2022/09/29 01:41:56;;;;;;;3.53;1.55;;;7.20;99.90;;;;;;6231012;22;20021;-88
2022/09/29 01:44:30;;;;;;;2.80;1.55;;;7.20;99.90;;;;;;6230238;23;20013;-88
2022/09/29 01:47:00;;;;;;;2.72;1.42;;;7.20;99.90;;;;;;6230769;23;20019;-86
2022/09/29 01:49:30;;;;;;;3.70;1.73;;;7.20;99.90;;;;;;6230532;23;20033;-88
2022/09/29 01:52:01;;;;;;;2.75;1.27;;;7.20;99.90;;;;;;6230261;23;20021;-88
2022/09/29 01:54:41;;;;;;;2.08;1.10;;;7.20;99.90;;;;;;6230884;22;20028;-89
2022/09/29 01:57:12;;;;;;;2.03;0.90;;;7.10;99.90;;;;;;6230402;23;20022;-87
2022/09/29 01:59:52;;;;;;;1.67;1.00;;;7.00;99.90;;;;;;6230198;23;20024;-88
2022/09/29 02:02:28;;;;;;;2.13;1.02;;;6.90;99.90;;;;;;6230237;23;20147;-87
2022/09/29 02:05:00;;;;;;;3.35;1.60;;;6.90;99.90;;;;;;6230303;23;20028;-87
2022/09/29 02:07:53;;;;;;;3.17;1.40;;;6.90;99.90;;;;;;6255374;22;20026;-87
2022/09/29 02:10:26;;;;;;;3.00;1.40;;;6.90;99.90;;;;;;6225315;22;20230;-86
2022/09/29 02:12:55;;;;;;;3.50;1.67;;;6.90;99.90;;;;;;6228010;23;20010;-87
2022/09/29 02:15:30;;;;;;;2.70;1.40;;;6.90;99.90;;;;;;6202974;22;20328;-87
2022/09/29 02:18:00;;;;;;;2.50;1.38;;;6.90;99.90;;;;;;6227682;22;20496;-87
2022/09/29 02:20:26;;;;;;;2.78;1.25;;;6.90;99.90;;;;;;6253150;22;20017;-87
2022/09/29 02:22:51;;;;;;;2.93;1.40;;;6.90;99.90;;;;;;6202452;23;20232;-87
2022/09/29 02:25:18;;;;;;;2.47;1.47;;;6.90;99.90;;;;;;6204154;23;20022;-87
2022/09/29 02:27:46;;;;;;;2.95;1.38;;;6.90;99.90;;;;;;6255419;22;20096;-87
2022/09/29 02:30:12;;;;;;;2.42;1.20;;;6.90;99.90;;;;;;6230353;23;20024;-87
2022/09/29 02:32:38;;;;;;;2.13;1.20;;;6.80;99.90;;;;;;6232014;23;20045;-88
2022/09/29 02:35:08;;;;;;;3.25;1.35;;;6.80;99.90;;;;;;6213981;23;20021;-87
2022/09/29 02:38:21;;;;;;;2.75;1.30;;;6.80;99.90;;;;;;6231841;22;20021;-88
2022/09/29 02:40:58;;;;;;;3.15;1.42;;;6.80;99.90;;;;;;6134276;23;20017;-87
2022/09/29 02:43:46;;;;;;;3.40;1.23;;;6.80;99.90;;;;;;6213581;23;20096;-87
2022/09/29 02:46:25;;;;;;;2.30;1.20;;;6.80;99.90;;;;;;6229798;23;20021;-87
2022/09/29 02:49:00;;;;;;;2.58;1.35;;;6.80;99.90;;;;;;6255030;22;20025;-87
2022/09/29 02:51:40;;;;;;;2.53;1.35;;;6.80;99.90;;;;;;6229624;23;20057;-87
2022/09/29 02:54:32;;;;;;;3.13;1.23;;;6.70;99.90;;;;;;6254891;22;20029;-86
2022/09/29 02:57:16;;;;;;;2.28;1.20;;;6.70;99.90;;;;;;6208469;23;20017;-87
2022/09/29 03:00:10;;;;;;;2.00;1.10;;;6.70;99.90;;;;;;6229599;22;20024;-87
2022/09/29 03:02:40;;;;;;;1.80;1.00;;;6.70;99.90;;;;;;6229762;22;20033;-87
2022/09/29 03:05:09;;;;;;;1.35;0.80;;;6.60;99.90;;;;;;6229380;23;20017;-87
2022/09/29 03:07:37;;;;;;;1.27;0.70;;;6.60;99.90;;;;;;6230074;23;20415;-86
2022/09/29 03:10:04;;;;;;;1.60;0.70;;;6.60;99.90;;;;;;6232659;23;20061;-87
2022/09/29 03:12:30;;;;;;;2.05;1.23;;;6.60;99.90;;;;;;6230150;22;20018;-87
2022/09/29 03:15:11;;;;;;;1.60;0.67;;;6.50;99.90;;;;;;6204247;23;20029;-86
2022/09/29 03:17:37;;;;;;;1.73;0.80;;;6.60;99.90;;;;;;6229317;23;20330;-89
2022/09/29 03:20:04;;;;;;;2.10;1.08;;;6.50;99.90;;;;;;6229460;23;20017;-89
2022/09/29 03:22:30;;;;;;;1.75;1.00;;;6.50;99.90;;;;;;6204424;23;20098;-87
2022/09/29 03:24:55;;;;;;;2.00;0.90;;;6.50;99.90;;;;;;6229830;22;20029;-87
2022/09/29 03:27:21;;;;;;;1.97;0.90;;;6.40;99.90;;;;;;6179020;23;20036;-87
2022/09/29 03:30:24;;;;;;;2.17;1.20;;;6.40;99.90;;;;;;6204519;23;20018;-87
2022/09/29 03:33:21;;;;;;;2.65;1.00;;;6.40;99.90;;;;;;6229630;23;20017;-87
2022/09/29 03:35:56;;;;;;;1.40;0.80;;;6.40;99.90;;;;;;6229859;23;20079;-91
2022/09/29 03:38:22;;;;;;;2.22;1.20;;;6.40;99.90;;;;;;6229881;23;20024;-90
2022/09/29 03:40:47;;;;;;;3.60;1.20;;;6.50;99.90;;;;;;6204711;22;20017;-91
2022/09/29 03:43:13;;;;;;;2.53;1.20;;;6.50;99.90;;;;;;6230343;22;20100;-91
2022/09/29 03:45:48;;;;;;;1.27;0.80;;;6.50;99.90;;;;;;6204685;23;20415;-91
2022/09/29 03:48:40;;;;;;;2.53;1.10;;;6.50;99.90;;;;;;6230237;23;20029;-90
2022/09/29 03:51:15;;;;;;;2.45;1.10;;;6.50;99.90;;;;;;6230335;22;20071;-89
2022/09/29 03:53:40;;;;;;;2.10;1.00;;;6.50;99.90;;;;;;6227487;23;20009;-90
2022/09/29 03:56:06;;;;;;;2.33;1.10;;;6.50;99.90;;;;;;6227807;23;20059;-90
2022/09/29 03:58:49;;;;;;;1.58;0.93;;;6.50;99.90;;;;;;6251636;22;20343;-90
2022/09/29 04:01:15;;;;;;;2.65;1.17;;;6.50;99.90;;;;;;6204382;23;20120;-90
2022/09/29 04:03:58;;;;;;;2.60;1.17;;;6.40;99.90;;;;;;6228262;22;20040;-88
2022/09/29 04:06:26;;;;;;;2.85;1.30;;;6.40;99.90;;;;;;6229464;23;20073;-91
2022/09/29 04:08:52;;;;;;;2.13;1.20;;;6.40;99.90;;;;;;6226241;22;20030;-90
2022/09/29 04:11:21;;;;;;;2.33;1.30;;;6.40;99.90;;;;;;6203359;23;20018;-89
2022/09/29 04:13:47;;;;;;;2.90;1.25;;;6.30;99.90;;;;;;6228457;23;20076;-90
2022/09/29 04:16:15;;;;;;;2.23;1.17;;;6.30;99.90;;;;;;6254818;22;20430;-92
2022/09/29 04:19:08;;;;;;;2.33;1.15;;;6.40;99.90;;;;;;6218264;23;20056;-90
2022/09/29 04:21:34;;;;;;;1.92;0.98;;;6.30;99.90;;;;;;6204131;23;20021;-91
2022/09/29 04:23:59;;;;;;;2.77;1.40;;;6.20;99.90;;;;;;6179350;23;20115;-90
2022/09/29 04:26:25;;;;;;;2.97;1.40;;;6.10;99.90;;;;;;6179639;23;20025;-90
2022/09/29 04:28:51;;;;;;;2.17;1.07;;;6.10;99.90;;;;;;6229840;23;20062;-92
2022/09/29 04:31:17;;;;;;;1.93;1.20;;;6.10;99.90;;;;;;6204627;23;20077;-91
2022/09/29 04:33:43;;;;;;;3.03;1.50;;;6.10;99.90;;;;;;6207740;23;20022;-88
2022/09/29 04:36:08;;;;;;;2.97;1.50;;;6.10;99.90;;;;;;6245522;23;20025;-91
2022/09/29 04:38:34;;;;;;;4.40;1.70;;;6.10;99.90;;;;;;6235354;23;20022;-90
2022/09/29 04:41:00;;;;;;;4.43;1.83;;;6.00;99.90;;;;;;6204757;23;20036;-92
2022/09/29 04:43:26;;;;;;;2.90;1.60;;;6.10;99.90;;;;;;6229131;23;20056;-92
2022/09/29 04:45:52;;;;;;;2.57;1.40;;;6.00;99.90;;;;;;6179281;23;20060;-92
2022/09/29 04:48:18;;;;;;;3.00;1.40;;;6.00;99.90;;;;;;6229858;22;20014;-90
2022/09/29 04:50:44;;;;;;;3.23;1.70;;;6.00;99.90;;;;;;6179138;23;20045;-90
2022/09/29 04:53:52;;;;;;;4.30;2.00;;;6.10;99.90;;;;;;6229101;23;20339;-90
2022/09/29 04:56:18;;;;;;;3.63;1.80;;;6.10;99.90;;;;;;6229290;23;20450;-88
2022/09/29 04:58:44;;;;;;;5.03;2.33;;;6.10;99.90;;;;;;6229165;22;20531;-90
2022/09/29 05:01:13;;;;;;;4.03;2.10;;;6.10;99.90;;;;;;6228582;23;20021;-89
2022/09/29 05:03:40;;;;;;;3.22;1.80;;;6.10;99.90;;;;;;6229172;23;20022;-90
2022/09/29 05:06:08;;;;;;;4.40;2.15;;;6.10;99.90;;;;;;6228918;23;20358;-91
2022/09/29 05:09:05;;;;;;;4.63;2.22;;;6.00;99.90;;;;;;6225753;22;20018;-88
2022/09/29 05:12:26;;;;;;;3.97;2.00;;;6.10;99.90;;;;;;6197914;23;20086;-88
2022/09/29 05:18:13;;;;;;;;;;;;;;;;;;;;;
2022/09/29 05:20:53;;;;;;;3.58;1.90;;;6.10;99.90;;;;;;6247656;23;20032;-88
2022/09/29 05:23:34;;;;;;;3.97;1.88;;;6.10;99.90;;;;;;6196745;23;20446;-89
2022/09/29 05:26:05;;;;;;;2.55;1.50;;;6.10;99.90;;;;;;6196138;23;20020;-90
2022/09/29 05:28:32;;;;;;;2.63;1.23;;;6.00;99.90;;;;;;6196713;23;20453;-90
2022/09/29 05:31:05;;;;;;;2.63;1.30;;;6.00;99.90;;;;;;6197109;23;20020;-91
2022/09/29 05:33:31;;;;;;;2.92;1.60;;;5.90;99.90;;;;;;6172671;23;20016;-92
2022/09/29 05:35:57;;;;;;;3.13;1.70;;;5.90;99.90;;;;;;6196425;23;20016;-91
2022/09/29 05:38:41;;;;;;;3.07;1.53;;;5.90;99.90;;;;;;6221240;23;20038;-91
2022/09/29 05:41:12;;;;;;;2.65;1.40;;;5.80;99.90;;;;;;6196490;23;20012;-92
2022/09/29 05:43:39;;;;;;;3.85;1.75;;;5.80;99.90;;;;;;6171119;23;20012;-91
2022/09/29 05:46:07;;;;;;;4.05;1.85;;;5.90;99.90;;;;;;6196630;23;20016;-92
2022/09/29 05:48:33;;;;;;;3.72;1.80;;;5.90;99.90;;;;;;6196773;23;20016;-90
2022/09/29 05:51:05;;;;;;;3.97;2.10;;;5.90;99.90;;;;;;6171754;23;20071;-91
2022/09/29 05:53:31;;;;;;;3.75;1.85;;;5.90;99.90;;;;;;6196589;23;20012;-89
2022/09/29 05:55:57;;;;;;;3.60;1.80;;;6.00;99.90;;;;;;6196134;23;20326;-91
2022/09/29 05:58:22;;;;;;;4.80;2.20;;;6.00;99.90;;;;;;6194474;23;20023;-91
2022/09/29 06:00:48;;;;;;;3.17;1.60;;;6.10;99.90;;;;;;6170727;23;20027;-91
2022/09/29 06:03:14;;;;;;;3.00;1.47;;;6.10;99.90;;;;;;6195189;23;20315;-91
2022/09/29 06:05:40;;;;;;;3.50;1.60;;;6.10;99.90;;;;;;6196435;23;20051;-89
2022/09/29 06:08:06;;;;;;;3.30;1.60;;;6.10;99.90;;;;;;6169863;23;20036;-90
2022/09/29 06:10:32;;;;;;;3.80;1.98;;;6.10;99.90;;;;;;6186386;22;20026;-89
2022/09/29 06:13:00;;;;;;;4.18;2.17;;;6.20;99.90;;;;;;6225151;22;20062;-89
2022/09/29 06:15:26;;;;;;;3.47;1.77;;;6.10;99.90;;;;;;6224883;22;20357;-90
2022/09/29 06:17:57;;;;;;;4.63;2.20;;;6.20;99.90;;;;;;6226400;22;20022;-90
2022/09/29 06:20:24;;;;;;;4.43;2.40;;;6.20;99.90;;;;;;6226137;22;20384;-92
2022/09/29 06:22:53;;;;;;;4.13;1.92;;;6.20;99.90;;;;;;6225970;22;20342;-92
2022/09/29 06:25:19;;;;;;;3.85;2.13;;;6.20;99.90;;;;;;6226467;22;20318;-90
2022/09/29 06:27:46;;;;;;;5.82;2.45;;;6.30;99.90;;;;;;6226325;22;20023;-92
2022/09/29 06:30:12;;;;;;;5.18;2.45;;;6.40;99.90;;;;;;6176793;22;20051;-89
2022/09/29 06:32:39;;;;;;;5.80;3.15;;;6.40;99.90;;;;;;6227272;22;20077;-90
2022/09/29 06:37:52;;;;;;;8.80;5.57;;;6.50;99.90;;;;;;6264362;22;20020;-89
2022/09/29 06:40:22;;;;;;;9.35;5.85;;;6.50;99.90;;;;;;6225767;22;20031;-89
2022/09/29 06:42:48;;;;;;;7.95;4.75;;;6.50;99.90;;;;;;6226016;22;20012;-89
2022/09/29 06:45:14;;;;;;;6.45;3.75;;;6.60;99.90;;;;;;6225792;22;20016;-92
2022/09/29 06:47:40;;;;;;;7.47;4.37;;;6.60;99.90;;;;;;6225872;22;20012;-89
2022/09/29 06:50:06;;;;;;;5.77;3.23;;;6.70;99.90;;;;;;6226158;22;20026;-90
2022/09/29 06:52:32;;;;;;;5.78;2.90;;;6.80;99.90;;;;;;6225533;22;20453;-91
2022/09/29 06:55:01;;;;;;;5.60;2.63;;;6.80;99.90;;;;;;6251283;22;20100;-88
2022/09/29 06:57:27;;;;;;;4.63;2.10;;;6.80;99.90;;;;;;6225727;22;20015;-91
2022/09/29 06:59:52;;;;;;;5.40;2.53;;;6.80;99.90;;;;;;6225962;22;20098;-90
2022/09/29 07:02:18;;;;;;;3.97;2.37;;;6.80;99.90;;;;;;6226319;22;20109;-91
2022/09/29 07:04:44;;;;;;;6.03;2.30;;;6.90;99.90;;;;;;6225774;22;20469;-90
2022/09/29 07:07:09;;;;;;;22.33;19.50;;;6.90;99.90;;;;;;6226125;22;20019;-90
2022/09/29 07:09:35;;;;;;;6.60;3.80;;;6.90;99.90;;;;;;6243126;22;20024;-88
2022/09/29 07:12:01;;;;;;;11.53;9.33;;;7.00;99.90;;;;;;6237602;22;20023;-90
2022/09/29 07:14:29;;;;;;;9.07;3.90;;;7.00;99.90;;;;;;6226088;22;20022;-90
2022/09/29 07:16:57;;;;;;;6.40;3.58;;;7.10;99.90;;;;;;6226082;22;20099;-90
2022/09/29 07:19:23;;;;;;;6.97;3.10;;;7.20;99.90;;;;;;6225744;22;20019;-90
2022/09/29 07:21:50;;;;;;;8.35;3.78;;;7.30;99.90;;;;;;6200741;22;20449;-90
2022/09/29 07:24:16;;;;;;;7.82;4.15;;;7.30;99.90;;;;;;6200989;22;20114;-90
2022/09/29 07:26:43;;;;;;;8.63;4.55;;;7.40;99.90;;;;;;6225367;22;20441;-90
2022/09/29 07:29:09;;;;;;;13.63;4.57;;;7.50;99.90;;;;;;6225320;22;20011;-91
2022/09/29 07:31:35;;;;;;;10.38;5.13;;;7.60;99.90;;;;;;6225594;22;20016;-90
2022/09/29 07:34:01;;;;;;;9.93;5.18;;;7.60;99.90;;;;;;6225864;22;20341;-91
2022/09/29 07:36:27;;;;;;;9.40;4.63;;;7.70;99.90;;;;;;6225121;22;20015;-90
2022/09/29 07:38:52;;;;;;;9.90;4.97;;;7.80;99.90;;;;;;6225099;22;20015;-92
2022/09/29 07:41:20;;;;;;;9.13;4.00;;;7.90;99.90;;;;;;6200738;22;20034;-91
2022/09/29 07:43:46;;;;;;;8.95;4.55;;;7.90;99.90;;;;;;6225658;22;20019;-93
2022/09/29 07:46:12;;;;;;;13.43;6.40;;;8.00;99.90;;;;;;6225714;22;20034;-90
2022/09/29 07:48:38;;;;;;;14.85;6.03;;;8.10;99.90;;;;;;6200189;22;20019;-90
2022/09/29 07:51:11;;;;;;;11.30;5.55;;;8.20;99.90;;;;;;6225369;22;20015;-91
2022/09/29 07:53:37;;;;;;;12.13;6.50;;;8.20;99.90;;;;;;6225535;22;20054;-90
2022/09/29 07:56:05;;;;;;;11.03;6.23;;;8.30;99.90;;;;;;6200150;22;20019;-91
2022/09/29 07:58:31;;;;;;;12.65;6.25;;;8.40;99.90;;;;;;6225351;22;20016;-90
2022/09/29 08:00:57;;;;;;;14.18;6.75;;;8.40;99.90;;;;;;6225186;22;20319;-90
2022/09/29 08:03:24;;;;;;;13.97;6.67;;;8.60;99.90;;;;;;6225144;22;20054;-91
2022/09/29 08:05:52;;;;;;;13.38;7.53;;;8.60;99.90;;;;;;6225176;22;20023;-91
2022/09/29 08:08:18;;;;;;;14.77;7.50;;;8.70;99.90;;;;;;6225028;22;20318;-91
2022/09/29 08:10:44;;;;;;;14.03;6.73;;;8.80;99.90;;;;;;6224995;22;20153;-90
2022/09/29 08:13:11;;;;;;;14.32;7.10;;;8.90;99.90;;;;;;6225370;22;20042;-90
2022/09/29 08:15:44;;;;;;;14.43;6.57;;;9.00;99.90;;;;;;6225242;22;20019;-92
2022/09/29 08:18:10;;;;;;;13.10;7.32;;;9.00;99.90;;;;;;6176046;22;20016;-91
2022/09/29 08:20:36;;;;;;;17.10;7.23;;;9.10;99.90;;;;;;6225180;22;20020;-91
2022/09/29 08:23:06;;;;;;;15.55;7.35;;;9.20;99.90;;;;;;6225080;22;20016;-93
2022/09/29 08:25:34;;;;;;;16.98;7.28;;;9.20;99.90;;;;;;6225269;22;20020;-91
2022/09/29 08:28:00;;;;;;;14.88;7.28;;;9.30;99.90;;;;;;6224938;22;20015;-91
2022/09/29 08:30:25;;;;;;;17.07;7.57;;;9.30;99.90;;;;;;6200246;22;20095;-90
2022/09/29 08:33:00;;;;;;;14.23;7.33;;;9.40;99.90;;;;;;6225314;22;20437;-93
2022/09/29 08:35:26;;;;;;;15.63;7.60;;;9.50;99.90;;;;;;6202114;22;20015;-91
2022/09/29 08:37:54;;;;;;;18.20;7.63;;;9.50;99.90;;;;;;6236325;22;20031;-92
2022/09/29 08:40:20;;;;;;;16.83;8.15;;;9.60;99.90;;;;;;6224872;22;20020;-90
2022/09/29 08:43:13;;;;;;;18.23;8.68;;;9.60;99.90;;;;;;6225137;22;20037;-92
2022/09/29 08:46:23;;;;;;;14.68;7.78;;;9.70;99.90;;;;;;6224681;22;20012;-92
2022/09/29 08:49:32;;;;;;;15.02;7.90;;;9.80;99.90;;;;;;6104956;23;20022;-91
2022/09/29 08:52:06;;;;;;;15.10;7.43;;;9.90;99.90;;;;;;6121654;23;20021;-92
2022/09/29 08:54:41;;;;;;;15.73;8.13;;;9.90;99.90;;;;;;6233525;22;20011;-92
2022/09/29 08:57:18;;;;;;;13.18;6.50;;;10.00;99.90;;;;;;6224961;22;20020;-92
2022/09/29 08:59:56;;;;;;;13.77;7.32;;;10.10;99.90;;;;;;6224989;22;20047;-92
2022/09/29 09:08:09;;;;;;;13.98;7.05;;;10.20;99.90;;;;;;6276869;22;20023;-92
2022/09/29 09:14:55;;;;;;;;;;;;;;;;;;;;;
2022/09/29 09:25:30;;;;;;;10.30;4.88;;;10.70;99.90;;;;;;6276481;22;20070;-92
2022/09/29 09:28:18;;;;;;;8.73;4.40;;;10.70;99.90;;;;;;6224445;22;20030;-90
2022/09/29 09:30:59;;;;;;;10.45;5.70;;;10.80;99.90;;;;;;6224550;22;20015;-90
2022/09/29 09:33:51;;;;;;;7.97;4.13;;;10.90;99.90;;;;;;6224564;22;20391;-90
2022/09/29 09:36:33;;;;;;;8.50;4.47;;;10.90;99.90;;;;;;6224547;22;20528;-91
2022/09/29 09:39:17;;;;;;;8.05;4.35;;;11.00;99.90;;;;;;6224643;22;20011;-90
2022/09/29 09:41:46;;;;;;;6.78;3.22;;;11.00;99.90;;;;;;6224602;22;20016;-90
2022/09/29 09:44:24;;;;;;;7.22;3.58;;;11.10;99.90;;;;;;6224582;22;20137;-90
2022/09/29 09:47:20;;;;;;;5.22;2.72;;;11.20;99.90;;;;;;6224604;22;20129;-89
2022/09/29 09:49:52;;;;;;;6.55;3.03;;;11.20;99.90;;;;;;6224580;22;20022;-90
2022/09/29 09:52:28;;;;;;;5.55;2.20;;;11.40;99.90;;;;;;6224697;22;20051;-91
2022/09/29 09:55:04;;;;;;;11.88;4.30;;;11.50;99.90;;;;;;6224434;22;20437;-90
2022/09/29 09:58:00;;;;;;;7.80;3.45;;;11.60;99.90;;;;;;6224788;22;20020;-91
2022/09/29 10:00:38;;;;;;;8.13;3.22;;;11.70;99.90;;;;;;6194536;22;20019;-90
2022/09/29 10:03:06;;;;;;;8.23;3.00;;;11.80;99.90;;;;;;6226802;22;20091;-91
2022/09/29 10:05:38;;;;;;;5.65;2.60;;;11.90;99.90;;;;;;6226165;22;20016;-92
2022/09/29 10:08:14;;;;;;;3.15;1.20;;;12.00;99.90;;;;;;6226723;22;20016;-92
2022/09/29 10:10:41;;;;;;;3.20;1.40;;;12.10;99.90;;;;;;6225987;22;20081;-92
2022/09/29 10:13:12;;;;;;;6.75;2.97;;;12.20;99.90;;;;;;6226453;22;20344;-92
2022/09/29 10:15:41;;;;;;;13.23;8.25;;;12.30;99.90;;;;;;6226125;22;20020;-90
2022/09/29 10:18:19;;;;;;;5.00;1.75;;;12.40;99.90;;;;;;6226339;22;20020;-90
2022/09/29 10:20:45;;;;;;;12.90;10.68;;;12.40;99.90;;;;;;6226042;22;20107;-91
2022/09/29 10:23:25;;;;;;;3.83;1.83;;;12.50;99.90;;;;;;6226482;22;20051;-90
2022/09/29 10:26:01;;;;;;;10.57;8.25;;;12.60;99.90;;;;;;6226200;22;20516;-91
2022/09/29 10:28:36;;;;;;;79.32;64.10;;;12.70;99.90;;;;;;6226606;22;20020;-90
2022/09/29 10:31:02;;;;;;;4.75;3.85;;;12.80;99.90;;;;;;6226556;22;20019;-91
2022/09/29 10:33:27;;;;;;;4.57;2.47;;;12.90;99.90;;;;;;6226202;22;20095;-90
2022/09/29 10:36:07;;;;;;;4.60;2.20;;;13.00;99.90;;;;;;6226423;22;20027;-90
2022/09/29 10:38:34;;;;;;;3.72;1.80;;;13.20;99.90;;;;;;6226500;22;20020;-90
2022/09/29 10:41:04;;;;;;;;;;;13.30;99.90;;;;;;6226585;22;20099;-92
2022/09/29 10:43:52;;;;;;;3.10;1.27;;;13.40;99.90;;;;;;6225819;22;19915;-91
2022/09/29 10:46:47;;;;;;;1.77;0.80;;;13.60;99.90;;;;;;6225327;22;20020;-89
2022/09/29 11:29:03;;;;;;;2.13;0.77;;;13.90;99.90;;;;;;6276630;22;20024;-90
2022/09/29 11:32:03;;;;;;;2.75;0.40;;;13.80;99.90;;;;;;6250177;22;20028;-89
2022/09/29 11:34:36;;;;;;;1.17;0.35;;;13.70;99.90;;;;;;6224812;22;20441;-89
2022/09/29 11:37:21;;;;;;;1.25;0.50;;;13.60;99.90;;;;;;6250793;22;20051;-90
2022/09/29 11:40:33;;;;;;;1.33;0.60;;;13.50;99.90;;;;;;6225430;22;20130;-93
2022/09/29 11:43:38;;;;;;;1.00;0.40;;;13.60;99.90;;;;;;6222906;22;20094;-90
2022/09/29 11:46:34;;;;;;;2.60;0.63;;;13.80;99.90;;;;;;6281064;22;20015;-87
2022/09/29 11:49:16;;;;;;;1.33;0.40;;;14.00;99.90;;;;;;6281490;22;20073;-90
2022/09/29 11:52:05;;;;;;;1.02;0.40;;;14.20;99.90;;;;;;6255677;22;20019;-88
2022/09/29 11:54:37;;;;;;;0.65;0.20;;;14.30;99.90;;;;;;6283467;22;20011;-88
2022/09/29 11:57:25;;;;;;;2.45;0.40;;;14.40;99.90;;;;;;6255523;22;20098;-89
2022/09/29 12:00:06;;;;;;;0.90;0.32;;;14.50;99.90;;;;;;6231906;22;20023;-89
2022/09/29 12:02:43;;;;;;;0.63;0.20;;;14.50;99.90;;;;;;6254552;22;20400;-90
2022/09/29 12:05:37;;;;;;;0.75;0.32;;;14.40;99.90;;;;;;6255503;22;20019;-90
2022/09/29 12:08:39;;;;;;;0.73;0.30;;;14.20;99.90;;;;;;6255571;22;20022;-89
2022/09/29 12:11:37;;;;;;;0.68;0.30;;;14.10;99.90;;;;;;6255381;22;20026;-89
2022/09/29 12:14:03;;;;;;;;;;;14.00;99.90;;;;;;6256089;22;20026;-88
2022/09/29 12:17:30;;;;;;;0.55;0.10;;;14.00;99.90;;;;;;6255194;22;20340;-89
2022/09/29 12:27:15;;;;;;;0.28;0.13;;;13.80;99.90;;;;;;6277870;22;20019;-89
2022/09/29 12:30:09;;;;;;;2.20;0.32;;;13.80;99.90;;;;;;6210310;22;20015;-92
2022/09/29 12:38:07;;;;;;;1.05;0.32;;;13.70;99.90;;;;;;6289445;22;20081;-89
2022/09/29 12:40:46;;;;;;;0.82;0.30;;;13.70;99.90;;;;;;6255002;22;20383;-90
2022/09/29 12:43:34;;;;;;;0.70;0.20;;;13.70;99.90;;;;;;6255166;22;20011;-89
2022/09/29 12:46:14;;;;;;;;;;;13.70;99.90;;;;;;6281095;22;20015;-89
2022/09/29 12:48:57;;;;;;;0.73;0.30;;;13.60;99.90;;;;;;6254854;22;19915;-89
2022/09/29 12:51:35;;;;;;;0.38;0.20;;;13.60;99.90;;;;;;6254798;22;20353;-91
2022/09/29 12:54:15;;;;;;;0.40;0.10;;;13.60;99.90;;;;;;6254183;22;20015;-89
2022/09/29 12:56:57;;;;;;;0.60;0.30;;;13.50;99.90;;;;;;6255281;22;20049;-89
2022/09/29 12:59:36;;;;;;;1.15;0.20;;;13.50;99.90;;;;;;6254518;22;20020;-88
2022/09/29 13:02:33;;;;;;;0.75;0.30;;;13.50;99.90;;;;;;6254588;22;20022;-89
2022/09/29 13:05:56;;;;;;;0.82;0.28;;;13.40;99.90;;;;;;6254547;22;20022;-87
2022/09/29 13:08:57;;;;;;;0.70;0.30;;;13.30;99.90;;;;;;6103994;23;20017;-88
2022/09/29 13:11:22;;;;;;;0.75;0.30;;;13.30;99.90;;;;;;6103086;23;20028;-87
2022/09/29 13:14:17;;;;;;;1.40;0.30;;;13.30;99.90;;;;;;6234275;22;20015;-88
2022/09/29 13:17:17;;;;;;;0.95;0.32;;;13.30;99.90;;;;;;6248403;22;20026;-88
2022/09/29 13:20:21;;;;;;;0.90;0.20;;;13.30;99.90;;;;;;6183114;22;20023;-88
2022/09/29 13:23:24;;;;;;;0.32;0.13;;;13.30;99.90;;;;;;6277471;22;20019;-89
2022/09/29 13:25:58;;;;;;;0.20;0.10;;;13.30;99.90;;;;;;6254309;22;20019;-85
2022/09/29 13:28:31;;;;;;;0.55;0.10;;;13.30;99.90;;;;;;6307364;22;20026;-89
2022/09/29 13:31:04;;;;;;;0.57;0.28;;;13.30;99.90;;;;;;6254210;22;20022;-87
2022/09/29 13:33:31;;;;;;;0.45;0.17;;;13.40;99.90;;;;;;6256178;22;20344;-88
2022/09/29 13:35:57;;;;;;;;;;;13.50;99.90;;;;;;6282544;22;20026;-86
2022/09/29 13:38:33;;;;;;;0.13;0.05;;;13.60;99.90;;;;;;6308871;22;19915;-87
2022/09/29 13:41:24;;;;;;;1.27;0.20;;;13.70;99.90;;;;;;6282273;22;20072;-87
2022/09/29 13:43:50;;;;;;;1.58;0.10;;;13.80;99.90;;;;;;6256304;22;20015;-87
2022/09/29 13:46:31;;;;;;;0.50;0.13;;;13.90;99.90;;;;;;6256355;22;20447;-88
2022/09/29 13:49:12;;;;;;;0.65;0.20;;;14.00;99.90;;;;;;6256140;22;20560;-87
2022/09/29 13:51:54;;;;;;;0.43;0.20;;;14.10;99.90;;;;;;6256125;22;20011;-87
2022/09/29 13:54:36;;;;;;;0.25;0.15;;;14.20;99.90;;;;;;6267885;22;20007;-87
2022/09/29 13:57:18;;;;;;;0.57;0.20;;;14.20;99.90;;;;;;6277658;22;20069;-88
2022/09/29 14:00:06;;;;;;;1.25;0.30;;;14.20;99.90;;;;;;6259830;22;20438;-88
2022/09/29 14:03:01;;;;;;;0.30;0.10;;;14.20;99.90;;;;;;6255878;22;20068;-89
2022/09/29 14:05:27;;;;;;;0.80;0.30;;;14.10;99.90;;;;;;6222287;22;20098;-88
2022/09/29 14:07:56;;;;;;;1.33;0.53;;;14.10;99.90;;;;;;6253936;22;20039;-89
2022/09/29 14:10:44;;;;;;;0.47;0.13;;;14.10;99.90;;;;;;6253331;22;20015;-88
2022/09/29 14:13:25;;;;;;;0.25;0.10;;;14.10;99.90;;;;;;6233682;22;20017;-88
2022/09/29 14:16:13;;;;;;;0.05;0.05;;;14.10;99.90;;;;;;6279105;22;20018;-89
2022/09/29 14:18:53;;;;;;;0.65;0.10;;;14.00;99.90;;;;;;6255866;22;20023;-88
2022/09/29 14:21:46;;;;;;;0.52;0.20;;;14.00;99.90;;;;;;6256064;22;20068;-89
2022/09/29 14:24:34;;;;;;;0.20;0.10;;;13.90;99.90;;;;;;6281567;22;20038;-90
2022/09/29 14:27:21;;;;;;;0.47;0.20;;;13.80;99.90;;;;;;6255996;22;20452;-91
2022/09/29 14:29:58;;;;;;;0.20;0.17;;;13.80;99.90;;;;;;6281648;22;20348;-89
2022/09/29 14:32:41;;;;;;;;;;;13.70;99.90;;;;;;6256807;22;20016;-92
2022/09/29 14:35:18;;;;;;;0.45;0.10;;;13.70;99.90;;;;;;6209324;22;20322;-89
2022/09/29 14:37:44;;;;;;;;;;;13.70;99.90;;;;;;6166314;23;20040;-89
2022/09/29 14:40:28;;;;;;;1.65;0.17;;;13.70;99.90;;;;;;6165539;23;20037;-89
2022/09/29 14:43:15;;;;;;;0.22;0.10;;;13.60;99.90;;;;;;6165873;23;20435;-90
2022/09/29 14:52:05;;;;;;;0.10;0.10;;;13.60;99.90;;;;;;6168038;23;20509;-89
2022/09/29 14:55:01;;;;;;;0.80;0.08;;;13.60;99.90;;;;;;6190781;23;20063;-89
2022/09/29 14:57:51;;;;;;;0.05;0.05;;;13.50;99.90;;;;;;6165821;23;20489;-89